Rechercher aéroport 
image banner adimage banner adimage banner ad
image banner ad

KNJK - El Centro Naf

Situé à El Centro, United States

ICAO - NJK, IATA -

Données fournies par Airmate  

Information générale

Coordonnées: N32°49'36" W115°40'7"
Élévation : -42 feet MSL.
Variation magnétique : 11° East
Voir autres Aéroports à California

Données opérationnelles

Special qualification required
Heure actuelle UTC:
Heure actuelle locale:
Météo
METAR: KNJK 300056Z 18009KT 10SM FEW080 FEW150 BKN220 44/12 A2966 RMK AO2 SLP059 T04390122 $
TAF: TAF KNJK 2923/3023 VRB06KT 9999 FEW080 SCT220 QNH2963INS FM300200 25010KT 9999 FEW080 SCT220 QNH2965INS TEMPO 3002/3008 25015G20KT AUTOMATED SENSOR METWATCH 3006 TIL 3013 T45/3000Z T29/3012Z FS30093
Voir NOTAMs / SUP AIP / TFR affectant cet aéroport [VIEW]
Fréquences de communication: [VIEW]

Pistes:

Identifiant RWYQFULongueur (ft)Largeur (ft)SurfaceLDA (ft)
0890°9503200OTHER
26270°9503200OTHER
12135°6825200OTHER
30315°6825200OTHER

Coordonnées de l'aéroport

Adresse: El Centro United States

Vue satellite de KNJK